createdAt,value
2023-10-07T00:01:01.139Z,5.71
2023-10-07T00:03:28.105Z,5.73
2023-10-07T00:06:01.705Z,5.75
2023-10-07T00:08:29.499Z,5.72
2023-10-07T00:11:03.036Z,5.70
2023-10-07T00:13:32.931Z,5.73
2023-10-07T00:16:01.149Z,5.71
2023-10-07T00:18:29.256Z,5.64
2023-10-07T00:20:56.859Z,5.60
2023-10-07T00:23:27.511Z,5.57
2023-10-07T00:25:56.326Z,5.54
2023-10-07T00:28:34.592Z,5.50
2023-10-07T00:31:08.142Z,5.50
2023-10-07T00:33:51.585Z,5.58
2023-10-07T00:36:41.764Z,5.46
2023-10-07T00:39:10.346Z,5.39
2023-10-07T00:41:46.526Z,5.40
2023-10-07T00:44:24.408Z,5.37
2023-10-07T00:47:06.854Z,5.34
2023-10-07T00:49:52.054Z,5.33
2023-10-07T00:52:29.347Z,5.31
2023-10-07T00:55:05.956Z,5.31
2023-10-07T00:57:38.931Z,5.30
2023-10-07T01:00:24.841Z,5.28
2023-10-07T01:02:52.719Z,5.22
2023-10-07T01:05:28.413Z,5.25
2023-10-07T01:07:55.514Z,5.21
2023-10-07T01:10:32.700Z,5.20
2023-10-07T01:13:04.855Z,5.18
2023-10-07T01:15:36.015Z,5.15
2023-10-07T01:18:06.386Z,5.12
2023-10-07T01:20:49.240Z,5.06
2023-10-07T01:23:20.134Z,5.07
2023-10-07T01:25:51.548Z,5.06
2023-10-07T01:28:18.739Z,5.05
2023-10-07T01:31:03.818Z,5.05
2023-10-07T01:33:40.277Z,5.00
2023-10-07T01:36:17.273Z,4.95
2023-10-07T01:38:53.597Z,4.92
2023-10-07T01:41:21.711Z,4.89
2023-10-07T01:44:00.265Z,4.88
2023-10-07T01:46:28.986Z,4.84
2023-10-07T01:48:58.522Z,4.82
2023-10-07T01:51:30.451Z,4.79
2023-10-07T01:54:04.875Z,4.74
2023-10-07T01:56:33.080Z,4.70
2023-10-07T01:59:10.990Z,4.68
2023-10-07T02:01:42.690Z,4.58
2023-10-07T02:04:19.482Z,4.57
2023-10-07T02:06:55.491Z,4.51
2023-10-07T02:09:26.929Z,4.48
2023-10-07T02:11:55.300Z,4.47
2023-10-07T02:14:26.962Z,4.42
2023-10-07T02:16:55.339Z,4.41
2023-10-07T02:19:32.937Z,4.42
2023-10-07T02:22:01.488Z,4.35
2023-10-07T02:24:31.394Z,4.28
2023-10-07T02:27:04.788Z,4.31
2023-10-07T02:29:32.544Z,4.29
2023-10-07T02:32:08.382Z,4.30
2023-10-07T02:34:35.310Z,4.25
2023-10-07T02:37:22.298Z,4.21
2023-10-07T02:39:52.653Z,4.18
2023-10-07T02:42:22.864Z,4.16
2023-10-07T02:45:02.102Z,4.12
2023-10-07T02:47:32.999Z,4.04
2023-10-07T02:50:02.367Z,3.94
2023-10-07T02:52:37.169Z,3.97
2023-10-07T02:55:19.914Z,3.95
2023-10-07T02:57:58.879Z,3.97
2023-10-07T03:00:39.661Z,3.96
2023-10-07T03:03:16.059Z,3.94
2023-10-07T03:06:15.833Z,3.90
2023-10-07T03:08:44.999Z,3.91
2023-10-07T03:11:12.983Z,3.85
2023-10-07T03:13:47.242Z,3.81
2023-10-07T03:16:18.272Z,3.62
2023-10-07T03:18:56.574Z,3.49
2023-10-07T03:21:36.810Z,3.56
2023-10-07T03:24:12.595Z,3.59
2023-10-07T03:26:41.855Z,3.60
2023-10-07T03:29:09.230Z,3.58
2023-10-07T03:31:39.828Z,3.56
2023-10-07T03:34:10.142Z,3.56
2023-10-07T03:36:42.934Z,3.56
2023-10-07T03:39:17.266Z,3.51
2023-10-07T03:41:53.539Z,3.50
2023-10-07T03:44:22.262Z,3.47
2023-10-07T03:46:55.582Z,3.43
2023-10-07T03:49:23.669Z,3.39
2023-10-07T03:52:04.507Z,3.40
2023-10-07T03:54:31.974Z,3.38
2023-10-07T03:57:01.735Z,3.36
2023-10-07T03:59:33.146Z,3.35
2023-10-07T04:02:00.322Z,3.32
2023-10-07T04:04:27.600Z,3.30
2023-10-07T04:06:54.404Z,3.31
2023-10-07T04:09:28.532Z,3.31
2023-10-07T04:11:55.238Z,3.31
2023-10-07T04:14:32.174Z,3.20
2023-10-07T04:17:07.806Z,3.23
2023-10-07T04:19:42.026Z,3.15
2023-10-07T04:22:09.984Z,3.08
2023-10-07T04:24:39.382Z,3.07
2023-10-07T04:27:07.237Z,3.03
2023-10-07T04:29:34.418Z,3.03
2023-10-07T04:32:28.843Z,3.03
2023-10-07T04:35:21.944Z,3.02
2023-10-07T04:37:48.885Z,2.97
2023-10-07T04:40:16.283Z,2.97
2023-10-07T04:43:01.582Z,2.92
2023-10-07T04:45:38.637Z,2.94
2023-10-07T04:48:24.058Z,2.92
2023-10-07T04:51:08.716Z,2.92
2023-10-07T04:53:41.701Z,2.89
2023-10-07T04:56:09.982Z,2.85
2023-10-07T04:58:41.049Z,2.86
2023-10-07T05:01:31.370Z,2.82
2023-10-07T05:04:05.905Z,2.74
2023-10-07T05:06:35.853Z,2.75
2023-10-07T05:09:24.470Z,2.75
2023-10-07T05:11:51.756Z,2.66
2023-10-07T05:14:23.815Z,2.64
2023-10-07T05:16:51.041Z,2.66
2023-10-07T05:19:23.756Z,2.63
2023-10-07T05:22:06.474Z,2.65
2023-10-07T05:24:34.241Z,2.60
2023-10-07T05:27:01.952Z,2.61
2023-10-07T05:29:29.530Z,2.60
2023-10-07T05:31:57.810Z,2.63
2023-10-07T05:34:31.262Z,2.65
2023-10-07T05:37:12.462Z,2.72
2023-10-07T05:39:42.295Z,2.77
2023-10-07T05:44:40.729Z,2.71
2023-10-07T05:47:09.863Z,2.81
2023-10-07T05:49:39.086Z,2.80
2023-10-07T05:52:06.737Z,2.80
2023-10-07T05:54:33.875Z,2.77
2023-10-07T05:57:03.620Z,2.79
2023-10-07T05:59:34.651Z,2.79
2023-10-07T06:02:07.259Z,2.90
2023-10-07T06:04:35.141Z,3.03
2023-10-07T06:07:02.065Z,3.09
2023-10-07T06:09:29.920Z,3.12
2023-10-07T06:12:00.723Z,2.97
2023-10-07T06:14:27.641Z,2.99
2023-10-07T06:16:57.232Z,3.00
2023-10-07T06:19:24.796Z,2.71
2023-10-07T06:21:57.888Z,2.38
2023-10-07T06:24:25.133Z,2.46
2023-10-07T06:26:55.317Z,2.77
2023-10-07T06:29:22.160Z,3.05
2023-10-07T06:32:09.901Z,3.27
2023-10-07T06:34:42.361Z,3.39
2023-10-07T06:37:09.285Z,3.61
2023-10-07T06:39:36.119Z,3.83
2023-10-07T06:42:02.825Z,3.85
2023-10-07T06:44:31.679Z,3.85
2023-10-07T06:46:58.520Z,3.99
2023-10-07T06:49:25.375Z,4.13
2023-10-07T06:51:58.070Z,4.33
2023-10-07T06:54:33.123Z,4.54
2023-10-07T06:57:05.580Z,4.51
2023-10-07T06:59:32.358Z,4.44
2023-10-07T07:02:07.006Z,4.08
2023-10-07T07:04:36.797Z,3.97
2023-10-07T07:07:13.028Z,4.65
2023-10-07T07:09:51.736Z,6.31
2023-10-07T07:12:24.512Z,10.28
2023-10-07T07:14:52.487Z,13.43
2023-10-07T07:17:31.018Z,13.25
2023-10-07T07:20:13.539Z,14.34
2023-10-07T07:22:46.231Z,15.87
2023-10-07T07:25:24.016Z,17.74
2023-10-07T07:27:53.691Z,17.25
2023-10-07T07:30:31.230Z,15.84
2023-10-07T07:33:01.115Z,17.19
2023-10-07T07:35:41.374Z,19.12
2023-10-07T07:38:30.809Z,20.98
2023-10-07T07:41:12.734Z,20.56
2023-10-07T07:43:41.196Z,20.97
2023-10-07T07:46:24.665Z,21.04
2023-10-07T07:48:55.015Z,22.00
2023-10-07T07:51:25.752Z,20.91
2023-10-07T07:53:53.319Z,22.07
2023-10-07T07:56:21.335Z,21.27
2023-10-07T07:58:49.128Z,22.83
2023-10-07T08:01:21.048Z,23.49
2023-10-07T08:03:48.861Z,22.91
2023-10-07T08:06:22.420Z,25.65
2023-10-07T08:08:50.441Z,26.64
2023-10-07T08:11:19.333Z,26.28
2023-10-07T08:13:47.035Z,27.74
2023-10-07T08:16:21.136Z,27.06
2023-10-07T08:18:55.527Z,25.08
2023-10-07T08:21:29.799Z,26.01
2023-10-07T08:24:02.518Z,24.09
2023-10-07T08:26:29.954Z,23.34
2023-10-07T08:28:59.577Z,20.72
2023-10-07T08:31:40.764Z,24.15
2023-10-07T08:34:08.805Z,23.70
2023-10-07T08:36:37.650Z,22.37
2023-10-07T08:39:09.674Z,21.99
2023-10-07T08:41:42.005Z,25.02
2023-10-07T08:44:13.659Z,26.91
2023-10-07T08:46:54.782Z,28.20
2023-10-07T08:49:28.080Z,29.79
2023-10-07T08:51:56.141Z,28.32
2023-10-07T08:54:33.222Z,29.19
2023-10-07T08:57:10.193Z,31.51
2023-10-07T08:59:39.101Z,32.14
2023-10-07T09:02:05.937Z,32.91
2023-10-07T09:04:33.218Z,31.74
2023-10-07T09:07:01.505Z,33.48
2023-10-07T09:09:34.244Z,33.85
2023-10-07T09:12:09.235Z,33.17
2023-10-07T09:14:36.455Z,31.84
2023-10-07T09:17:06.130Z,30.71
2023-10-07T09:19:35.489Z,27.50
2023-10-07T09:22:11.589Z,29.19
2023-10-07T09:24:45.099Z,30.99
2023-10-07T09:27:14.526Z,29.13
2023-10-07T09:29:50.187Z,31.67
2023-10-07T09:32:22.885Z,32.67
2023-10-07T09:34:49.915Z,28.43
2023-10-07T09:37:22.534Z,31.55
2023-10-07T09:39:56.765Z,32.79
2023-10-07T09:42:37.528Z,32.23
2023-10-07T09:45:08.442Z,31.96
2023-10-07T09:47:41.661Z,30.30
2023-10-07T09:50:27.061Z,29.44
2023-10-07T09:53:26.312Z,26.92
2023-10-07T09:56:25.664Z,26.36
2023-10-07T09:59:15.223Z,26.53
2023-10-07T10:02:17.668Z,25.89
2023-10-07T10:05:13.055Z,25.90
2023-10-07T10:08:12.537Z,26.51
2023-10-07T10:10:46.006Z,26.74
2023-10-07T10:13:30.451Z,25.67
2023-10-07T10:16:02.092Z,24.17
2023-10-07T10:18:41.681Z,25.33
2023-10-07T10:21:14.015Z,22.49
2023-10-07T10:23:43.346Z,23.97
2023-10-07T10:26:15.807Z,24.48
2023-10-07T10:28:43.244Z,25.65
2023-10-07T10:31:22.414Z,29.16
2023-10-07T10:33:53.554Z,31.77
2023-10-07T10:36:23.788Z,33.35
2023-10-07T10:38:50.540Z,35.26
2023-10-07T10:41:31.050Z,33.88
2023-10-07T10:44:08.077Z,32.03
2023-10-07T10:46:45.794Z,32.40
2023-10-07T10:49:19.252Z,30.12
2023-10-07T10:51:51.639Z,28.52
2023-10-07T10:54:19.979Z,28.86
2023-10-07T10:57:08.935Z,27.74
2023-10-07T10:59:45.200Z,27.54
2023-10-07T11:02:18.069Z,26.13
2023-10-07T11:04:47.065Z,26.07
2023-10-07T11:07:15.769Z,25.76
2023-10-07T11:09:44.171Z,25.92
2023-10-07T11:12:13.824Z,25.39
2023-10-07T11:14:44.485Z,26.50
2023-10-07T11:17:13.585Z,27.39
2023-10-07T11:19:43.691Z,27.16
2023-10-07T11:22:15.227Z,29.30
2023-10-07T11:24:41.980Z,31.24
2023-10-07T11:27:10.080Z,30.59
2023-10-07T11:29:36.982Z,27.43
2023-10-07T11:32:05.666Z,26.31
2023-10-07T11:34:40.139Z,25.67
2023-10-07T11:37:10.390Z,24.97
2023-10-07T11:39:44.325Z,24.51
2023-10-07T11:42:15.447Z,24.09
2023-10-07T11:44:43.472Z,24.29
2023-10-07T11:47:12.240Z,24.31
2023-10-07T11:49:39.219Z,24.09
2023-10-07T11:52:06.811Z,23.59
2023-10-07T11:54:35.637Z,23.98
2023-10-07T11:57:06.062Z,23.88
2023-10-07T11:59:35.087Z,23.41
2023-10-07T12:02:02.423Z,23.60
2023-10-07T12:04:29.284Z,23.41
2023-10-07T12:06:55.999Z,22.88
2023-10-07T12:09:23.406Z,23.16
2023-10-07T12:11:51.219Z,23.47
2023-10-07T12:14:21.217Z,23.63
2023-10-07T12:16:48.103Z,22.82
2023-10-07T12:19:18.738Z,23.01
2023-10-07T12:21:49.029Z,23.30
2023-10-07T12:24:17.525Z,23.19
2023-10-07T12:26:48.017Z,23.01
2023-10-07T12:29:14.973Z,23.02
2023-10-07T12:31:43.579Z,23.33
2023-10-07T12:34:12.136Z,23.46
2023-10-07T12:36:39.595Z,23.64
2023-10-07T12:39:16.726Z,23.30
2023-10-07T12:41:43.605Z,23.74
2023-10-07T12:44:11.570Z,24.26
2023-10-07T12:46:39.701Z,24.51
2023-10-07T12:49:11.727Z,24.33
2023-10-07T12:51:40.263Z,23.95
2023-10-07T12:54:10.617Z,24.27
2023-10-07T12:56:47.483Z,24.77
2023-10-07T12:59:22.641Z,25.08
2023-10-07T13:01:57.244Z,24.61
2023-10-07T13:04:31.074Z,24.47
2023-10-07T13:07:11.552Z,23.90
2023-10-07T13:09:41.779Z,24.23
2023-10-07T13:12:16.888Z,24.30
2023-10-07T13:14:47.089Z,24.13
2023-10-07T13:17:14.749Z,24.32
2023-10-07T13:19:44.994Z,24.06
2023-10-07T13:22:11.763Z,24.01
2023-10-07T13:24:38.445Z,24.07
2023-10-07T13:27:09.398Z,24.07
2023-10-07T13:29:37.229Z,24.29
2023-10-07T13:32:07.229Z,24.79
2023-10-07T13:34:39.604Z,25.09
2023-10-07T13:37:13.097Z,24.99
2023-10-07T13:39:41.745Z,25.15
2023-10-07T13:42:10.816Z,25.34
2023-10-07T13:44:37.809Z,25.44
2023-10-07T13:47:08.608Z,25.79
2023-10-07T13:49:35.517Z,25.24
2023-10-07T13:52:06.786Z,25.19
2023-10-07T13:54:40.193Z,25.14
2023-10-07T13:57:20.156Z,24.82
2023-10-07T13:59:47.398Z,24.88
2023-10-07T14:02:21.027Z,24.57
2023-10-07T14:04:48.993Z,24.39
2023-10-07T14:07:15.909Z,24.69
2023-10-07T14:09:42.850Z,24.52
2023-10-07T14:12:10.886Z,24.13
2023-10-07T14:14:37.902Z,23.58
2023-10-07T14:17:05.077Z,23.62
2023-10-07T14:19:32.288Z,23.45
2023-10-07T14:21:59.155Z,23.63
2023-10-07T14:24:29.582Z,23.29
2023-10-07T14:26:57.642Z,23.39
2023-10-07T14:29:27.354Z,23.30
2023-10-07T14:31:54.721Z,23.41
2023-10-07T14:34:21.542Z,23.04
2023-10-07T14:36:48.262Z,23.01
2023-10-07T14:39:17.575Z,23.17
2023-10-07T14:41:50.792Z,23.29
2023-10-07T14:44:17.543Z,23.48
2023-10-07T14:46:46.024Z,23.71
2023-10-07T14:49:13.706Z,23.97
2023-10-07T14:51:40.673Z,24.00
2023-10-07T14:54:07.423Z,24.15
2023-10-07T14:56:34.401Z,24.08
2023-10-07T14:59:01.311Z,23.82
2023-10-07T15:01:29.168Z,23.79
2023-10-07T15:03:56.480Z,23.37
2023-10-07T15:06:24.019Z,23.19
2023-10-07T15:08:51.610Z,23.23
2023-10-07T15:11:19.916Z,23.39
2023-10-07T15:13:49.211Z,23.39
2023-10-07T15:16:16.136Z,23.21
2023-10-07T15:18:44.412Z,23.37
2023-10-07T15:21:12.553Z,23.38
2023-10-07T15:23:40.427Z,23.38
2023-10-07T15:26:18.136Z,23.01
2023-10-07T15:28:46.216Z,23.12
2023-10-07T15:31:21.189Z,22.87
2023-10-07T15:33:59.897Z,22.89
2023-10-07T15:36:26.727Z,22.86
2023-10-07T15:38:53.910Z,22.67
2023-10-07T15:41:21.211Z,22.64
2023-10-07T15:43:48.167Z,22.26
2023-10-07T15:46:15.374Z,21.98
2023-10-07T15:48:42.138Z,21.74
2023-10-07T15:51:10.312Z,21.69
2023-10-07T15:53:38.584Z,21.49
2023-10-07T15:56:07.802Z,20.80
2023-10-07T15:58:35.125Z,20.72
2023-10-07T16:01:04.967Z,20.65
2023-10-07T16:03:34.372Z,20.39
2023-10-07T16:06:01.453Z,20.43
2023-10-07T16:08:28.349Z,20.00
2023-10-07T16:10:55.196Z,19.87
2023-10-07T16:13:21.892Z,19.90
2023-10-07T16:15:48.547Z,19.74
2023-10-07T16:18:15.371Z,19.42
2023-10-07T16:20:42.599Z,19.06
2023-10-07T16:23:09.958Z,19.10
2023-10-07T16:25:36.679Z,18.85
2023-10-07T16:28:06.071Z,18.65
2023-10-07T16:30:32.787Z,18.48
2023-10-07T16:32:59.597Z,18.24
2023-10-07T16:35:26.405Z,18.02
2023-10-07T16:37:53.257Z,17.93
2023-10-07T16:40:20.188Z,17.84
2023-10-07T16:42:47.179Z,17.73
2023-10-07T16:45:14.353Z,17.70
2023-10-07T16:47:41.542Z,17.58
2023-10-07T16:50:15.818Z,17.48
2023-10-07T16:52:44.048Z,17.37
2023-10-07T16:55:10.971Z,17.23
2023-10-07T16:57:38.810Z,17.12
2023-10-07T17:00:06.559Z,17.04
2023-10-07T17:02:34.112Z,16.89
2023-10-07T17:05:01.261Z,16.80
2023-10-07T17:07:28.109Z,16.71
2023-10-07T17:09:55.070Z,16.57
2023-10-07T17:12:24.633Z,16.44
2023-10-07T17:14:54.957Z,16.36
2023-10-07T17:17:22.197Z,16.27
2023-10-07T17:19:48.996Z,16.21
2023-10-07T17:22:15.814Z,16.07
2023-10-07T17:24:43.268Z,16.01
2023-10-07T17:27:10.655Z,15.88
2023-10-07T17:29:37.417Z,15.78
2023-10-07T17:32:07.718Z,15.73
2023-10-07T17:34:34.691Z,15.64
2023-10-07T17:37:02.697Z,15.45
2023-10-07T17:39:32.876Z,15.42
2023-10-07T17:42:01.900Z,15.38
2023-10-07T17:44:28.936Z,15.23
2023-10-07T17:46:56.935Z,15.15
2023-10-07T17:49:24.333Z,15.08
2023-10-07T17:51:51.029Z,15.03
2023-10-07T17:54:17.810Z,14.95
2023-10-07T17:56:47.638Z,14.81
2023-10-07T17:59:15.109Z,14.69
2023-10-07T18:01:42.020Z,14.60
2023-10-07T18:04:10.326Z,14.49
2023-10-07T18:06:37.166Z,14.44
2023-10-07T18:09:04.017Z,14.35
2023-10-07T18:11:30.718Z,14.23
2023-10-07T18:13:57.561Z,14.10
2023-10-07T18:16:24.453Z,14.09
2023-10-07T18:21:26.464Z,13.92
2023-10-07T18:23:53.325Z,13.91
2023-10-07T18:26:20.885Z,13.85
2023-10-07T18:28:47.681Z,13.88
2023-10-07T18:31:17.029Z,13.81
2023-10-07T18:33:43.775Z,13.74
2023-10-07T18:36:10.516Z,13.69
2023-10-07T18:38:37.366Z,13.68
2023-10-07T18:41:06.658Z,13.64
2023-10-07T18:43:33.663Z,13.70
2023-10-07T18:46:00.497Z,13.71
2023-10-07T18:48:27.315Z,13.52
2023-10-07T18:50:54.265Z,13.59
2023-10-07T18:53:21.178Z,13.69
2023-10-07T18:55:54.335Z,13.65
2023-10-07T18:58:21.060Z,13.70
2023-10-07T19:00:50.772Z,13.74
2023-10-07T19:03:17.513Z,13.75
2023-10-07T19:05:44.950Z,13.73
2023-10-07T19:08:12.265Z,13.73
2023-10-07T19:10:42.678Z,13.76
2023-10-07T19:13:12.751Z,13.77
2023-10-07T19:15:43.004Z,13.65
2023-10-07T19:18:10.968Z,13.64
2023-10-07T19:20:47.113Z,13.59
2023-10-07T19:23:13.887Z,13.47
2023-10-07T19:25:40.572Z,13.37
2023-10-07T19:28:07.295Z,13.22
2023-10-07T19:30:34.484Z,13.18
2023-10-07T19:33:01.265Z,13.17
2023-10-07T19:35:28.000Z,13.14
2023-10-07T19:37:54.728Z,13.10
2023-10-07T19:40:21.421Z,13.03
2023-10-07T19:42:48.107Z,12.95
2023-10-07T19:45:14.907Z,12.89
2023-10-07T19:47:41.653Z,12.83
2023-10-07T19:50:08.981Z,12.77
2023-10-07T19:52:35.754Z,12.72
2023-10-07T19:55:04.235Z,12.67
2023-10-07T19:57:30.887Z,12.62
2023-10-07T19:59:58.818Z,12.56
2023-10-07T20:02:25.535Z,12.55
2023-10-07T20:04:52.552Z,12.53
2023-10-07T20:07:19.378Z,12.49
2023-10-07T20:09:46.534Z,12.48
2023-10-07T20:12:13.394Z,12.41
2023-10-07T20:14:40.441Z,12.34
2023-10-07T20:17:07.850Z,12.31
2023-10-07T20:19:34.593Z,12.27
2023-10-07T20:22:01.486Z,12.25
2023-10-07T20:24:28.211Z,12.17
2023-10-07T20:26:54.898Z,12.09
2023-10-07T20:29:21.696Z,12.05
2023-10-07T20:31:48.511Z,11.96
2023-10-07T20:34:15.796Z,11.92
2023-10-07T20:36:42.540Z,11.89
2023-10-07T20:39:11.536Z,11.85
2023-10-07T20:41:38.630Z,11.78
2023-10-07T20:44:05.614Z,11.74
2023-10-07T20:46:33.415Z,11.69
2023-10-07T20:49:00.407Z,11.67
2023-10-07T20:51:27.431Z,11.62
2023-10-07T20:53:54.746Z,11.60
2023-10-07T20:56:23.309Z,11.57
2023-10-07T20:58:50.305Z,11.53
2023-10-07T21:01:22.118Z,11.51
2023-10-07T21:03:51.078Z,11.47
2023-10-07T21:06:19.547Z,11.41
2023-10-07T21:08:47.203Z,11.40
2023-10-07T21:11:15.164Z,11.34
2023-10-07T21:13:42.864Z,11.21
2023-10-07T21:16:10.147Z,11.20
2023-10-07T21:18:38.399Z,11.20
2023-10-07T21:21:13.069Z,11.15
2023-10-07T21:23:44.167Z,11.14
2023-10-07T21:26:17.628Z,11.12
2023-10-07T21:28:45.322Z,11.11
2023-10-07T21:31:12.022Z,11.06
2023-10-07T21:33:38.748Z,10.97
2023-10-07T21:36:05.791Z,10.92
2023-10-07T21:38:34.291Z,10.87
2023-10-07T21:41:01.530Z,10.85
2023-10-07T21:43:28.260Z,10.82
2023-10-07T21:45:55.062Z,10.70
2023-10-07T21:48:22.098Z,10.71
2023-10-07T21:50:48.882Z,10.64
2023-10-07T21:53:15.720Z,10.63
2023-10-07T21:55:44.063Z,10.62
2023-10-07T21:58:10.821Z,10.60
2023-10-07T22:00:40.477Z,10.44
2023-10-07T22:03:16.782Z,10.29
2023-10-07T22:05:45.506Z,10.39
2023-10-07T22:08:15.667Z,10.39
2023-10-07T22:10:45.451Z,10.39
2023-10-07T22:13:18.523Z,10.39
2023-10-07T22:15:52.797Z,10.35
2023-10-07T22:18:20.903Z,10.35
2023-10-07T22:20:50.680Z,10.33
2023-10-07T22:23:20.665Z,10.31
2023-10-07T22:25:47.995Z,10.30
2023-10-07T22:28:16.671Z,10.23
2023-10-07T22:30:48.223Z,10.17
2023-10-07T22:33:17.060Z,10.08
2023-10-07T22:35:46.537Z,9.99
2023-10-07T22:38:18.304Z,9.97
2023-10-07T22:40:51.322Z,10.00
2023-10-07T22:43:19.205Z,10.00
2023-10-07T22:45:50.049Z,9.99
2023-10-07T22:48:21.900Z,10.02
2023-10-07T22:50:56.248Z,9.99
2023-10-07T22:53:30.699Z,9.94
2023-10-07T22:56:05.490Z,9.90
2023-10-07T22:58:39.195Z,9.86
2023-10-07T23:01:16.291Z,9.83
2023-10-07T23:03:50.200Z,9.72
2023-10-07T23:06:19.393Z,9.74
2023-10-07T23:08:57.003Z,9.76
2023-10-07T23:11:32.550Z,9.69
2023-10-07T23:14:18.927Z,9.70
2023-10-07T23:16:53.556Z,9.68
2023-10-07T23:19:43.748Z,9.66
2023-10-07T23:22:13.985Z,9.68
2023-10-07T23:24:41.553Z,9.69
2023-10-07T23:27:13.306Z,9.67
2023-10-07T23:29:50.745Z,9.63
2023-10-07T23:32:25.776Z,9.64
2023-10-07T23:35:00.492Z,9.63
2023-10-07T23:37:31.476Z,9.65
2023-10-07T23:40:12.048Z,9.61
2023-10-07T23:42:38.939Z,9.59
2023-10-07T23:45:09.482Z,9.55
2023-10-07T23:47:36.355Z,9.51
2023-10-07T23:50:03.602Z,9.40
2023-10-07T23:52:38.607Z,9.39
2023-10-07T23:55:09.590Z,9.36
2023-10-07T23:57:40.085Z,9.33
